MMHO 090540Z 00000KT 10SM SCT100 BKN200 17/13 A3001 RMK SLP162 54000 904 8/038 HZY= 090541

MMHO 090441Z 00000KT 10SM BKN090 BKN200 18/14 A3001 RMK 8/038 HZY= 090441

MMHO 090341Z 00000KT 10SM BKN090 BKN200 19/14 A3001 RMK 8/038 HZY= 090341

MMHO 090240Z 27003KT 10SM BKN090 BKN200 20/13 A3001 RMK SLP163 52011 909 8/038 HZY= 090241

MMHO 090141Z 21006KT 10SM BKN090 OVC200 22/13 A3000 RMK 8/037 HZY= 090142

MMHO 090044Z 22007KT 10SM BKN090 OVC200 23/12 A2998 RMK 8/038 BINOVC HZY= 090045

MMHO 082347Z 23004KT 10SM BKN090 OVC200 24/07 A2997 RMK SLP152 57003 911 8/038 BINOVC HZY= 082350

MMHO 082243Z 24006KT 10SM SCT090 BKN200 26/03 A2997 RMK 8/038 HZY= 082244

MMHO 082146Z 17007KT 10SM SCT090 BKN200 27/02 A2997 RMK 8/038 HZY= 082147

MMHO 082046Z 18007KT 10SM FEW090 BKN200 27/01 A2998 RMK SLP152 57020 909 8/038 HZY= 082046

MMHO 081950Z 10005KT 10SM FEW090 BKN200 26/02 A3000 RMK 8/038 HZY= 081951

MMHO 081842Z 09007KT 10SM FEW090 BKN200 24/02 A3002 RMK 8/038 HZY= 081843

MMHO 081743Z 11005KT 10SM SCT080 BKN200 24/02 A3004 RMK SLP174 52012 906 8/038 HZY= 081744

MMHO 081645Z 10003KT 10SM SCT080 BKN200 20/04 A3004 RMK 8/038 HZY= 081646

MMHO 081542Z 13005KT 10SM BKN080 OVC200 18/04 A3003 RMK 8/037 BINOVC HZY= 081543

MMHO 081440Z 08004KT 10SM BKN080 OVC200 15/05 A3001 RMK SLP164 52009 909 8/037 HZY= 081441

MMHO 081346Z 11003KT 10SM BKN080 OVC200 16/05 A3001 RMK 8/037 HZY= 081347

MMHO 081240Z 07004KT 10SM SCT090 OVC200 15/05 A2999 RMK 8/017 HZY= 081240

MMHO 081140Z 00000KT 10SM SCT090 OVC200 13/06 A2998 RMK SLP153 57004 906 8/037 HZY= 081141

MMHO 081040Z 00000KT 10SM FEW090 BKN200 12/05 A2998 RMK 8/038 HZY= 081040

MMHO 080941Z 00000KT 10SM BKN090 OVC200 11/05 A2998 RMK 8/037 HZY= 080941

MMHO 080840Z 00000KT 10SM BKN090 OVC200 15/05 A2999 RMK SLP155 57001 951 8/037 HZY= 080843

MMHO 080741Z 07004KT 10SM SCT090 OVC200 17/05 A3000 RMK 8/037 HZY= 080741

MMHO 080640Z 00000KT 10SM SCT090 BKN200 17/04 A2999 RMK 8/038 HZY= 080640

MMHO 080540Z 06005KT 10SM SCT090 BKN200 16/05 A2999 RMK SLP158 52005 957 8/038 HZY= 080540

MMHO 080440Z 05005KT 10SM FEW200 18/04 A2999 RMK 8/008 HZY= 080440

MMHO 080340Z 04004KT 10SM SKC 17/04 A2998 RMK HZY ISOL CI= 080340

MMHO 080241Z 00000KT 10SM SKC 18/04 A2998 RMK SLP157 52013 964 HZY= 080241

MMHO 080140Z 00000KT 10SM SKC 20/03 A2996 RMK HZY= 080140

MMHO 080041Z 00000KT 10SM SKC 23/02 A2995 RMK HZY= 080041

MMHO 072341Z 25005KT 10SM SKC 27/00 A2994 RMK SLP139 57005 962 HZY= 072341

MMHO 072241Z 20007KT 10SM SKC 28/01 A2994 RMK HZY= 072241

MMHO 072141Z 21010KT 10SM SKC 28/00 A2995 RMK HZY= 072141

MMHO 072040Z 19009KT 10SM SKC 28/02 A2995 RMK SLP143 57023 967 HZY= 072041

MMHO 071941Z 20005KT 10SM SKC 28/04 A2998 RMK HZY= 071941

MMHO 071841Z 00000KT 10SM SKC 26/03 A3001 RMK HZY= 071841

MMHO 071741Z 10004KT 10SM SKC 23/03 A3002 RMK SLP168 52015 974 HZY= 071741

MMHO 071641Z 12005KT 10SM SKC 19/04 A3001 RMK ISOL CI HZY= 071641

MMHO 071541Z 00000KT 10SM SKC 17/06 A3000 RMK ISOL CI HZY= 071541

MMHO 071441Z 33003KT 10SM SKC 11/05 A2998 RMK SLP156 52006 976 ISOL CI HZY= 071441

MMHO 071341Z 00000KT 10SM SKC 14/04 A2996 RMK ISOL CI HZY= 071341

MMHO 071242Z 16003KT 10SM SKC 10/05 A2996 RMK HZY= 071242

MMHO 071140Z 00000KT 10SM SKC 13/04 A2996 RMK SLP146 57011 964 HZY= 071141

MMHO 071041Z 11004KT 10SM SKC 12/03 A2998 RMK HZY= 071041

MMHO 070940Z 00000KT 10SM SKC 12/05 A3000 RMK HZY= 070941

MMHO 070840Z 08003KT 10SM SKC 15/05 A2999 RMK SLP156 57007 901 HZY= 070842

MMHO 070740Z 08003KT 10SM SKC 16/07 A2999 RMK HZY= 070741

MMHO 070641Z 10003KT 10SM SKC 15/07 A3001 RMK HZY= 070642

MMHO 070541Z 00000KT 10SM SKC 15/06 A3001 RMK SLP164 57002 909 ISOL CI HZY= 070541

MMHO 070440Z 00000KT 10SM SKC 17/06 A3003 RMK ISOL CI HZY= 070441